createdAt,value
2022-07-31T00:00:25.849Z,99.90
2022-07-31T00:02:55.418Z,99.90
2022-07-31T00:05:24.332Z,99.90
2022-07-31T00:07:53.836Z,99.90
2022-07-31T00:10:21.818Z,99.90
2022-07-31T00:12:49.915Z,99.90
2022-07-31T00:15:18.681Z,99.90
2022-07-31T00:17:47.093Z,99.90
2022-07-31T00:20:18.850Z,99.90
2022-07-31T00:22:49.049Z,99.90
2022-07-31T00:25:17.788Z,99.90
2022-07-31T00:27:46.120Z,99.90
2022-07-31T00:30:16.911Z,99.90
2022-07-31T00:32:45.392Z,99.90
2022-07-31T00:35:14.788Z,99.90
2022-07-31T00:37:45.373Z,99.90
2022-07-31T00:40:15.946Z,99.90
2022-07-31T00:42:44.671Z,99.90
2022-07-31T00:45:13.957Z,99.90
2022-07-31T00:47:42.332Z,99.90
2022-07-31T00:50:11.571Z,99.90
2022-07-31T00:52:39.848Z,99.90
2022-07-31T00:55:10.499Z,99.90
2022-07-31T00:57:38.601Z,99.90
2022-07-31T01:00:07.875Z,99.90
2022-07-31T01:02:35.841Z,99.90
2022-07-31T01:05:03.909Z,99.90
2022-07-31T01:07:31.861Z,99.90
2022-07-31T01:10:01.442Z,99.90
2022-07-31T01:12:37.039Z,99.90
2022-07-31T01:15:08.746Z,99.90
2022-07-31T01:17:39.634Z,99.90
2022-07-31T01:20:08.933Z,99.90
2022-07-31T01:23:03.717Z,99.90
2022-07-31T01:25:39.893Z,99.90
2022-07-31T01:28:24.729Z,99.90
2022-07-31T01:31:17.110Z,99.90
2022-07-31T01:33:50.789Z,99.90
2022-07-31T01:36:25.063Z,99.90
2022-07-31T01:38:57.111Z,99.90
2022-07-31T01:41:29.119Z,99.90
2022-07-31T01:43:58.877Z,99.90
2022-07-31T01:46:30.066Z,99.90
2022-07-31T01:48:58.946Z,99.90
2022-07-31T01:54:09.434Z,99.90
2022-07-31T01:56:39.115Z,99.90
2022-07-31T01:59:20.151Z,99.90
2022-07-31T02:01:52.367Z,99.90
2022-07-31T02:04:21.660Z,99.90
2022-07-31T02:06:50.909Z,99.90
2022-07-31T02:09:20.758Z,99.90
2022-07-31T02:11:54.597Z,99.90
2022-07-31T02:14:24.132Z,99.90
2022-07-31T02:16:53.952Z,99.90
2022-07-31T02:19:23.500Z,99.90
2022-07-31T02:21:51.843Z,99.90
2022-07-31T02:24:19.949Z,99.90
2022-07-31T02:26:48.723Z,99.90
2022-07-31T02:29:19.950Z,99.90
2022-07-31T02:32:11.758Z,99.90
2022-07-31T02:34:40.112Z,99.90
2022-07-31T02:37:08.720Z,99.90
2022-07-31T02:39:39.017Z,99.90
2022-07-31T02:42:07.809Z,99.90
2022-07-31T02:44:37.953Z,99.90
2022-07-31T02:47:07.468Z,99.90
2022-07-31T02:49:36.023Z,99.90
2022-07-31T02:52:06.663Z,99.90
2022-07-31T02:54:38.467Z,99.90
2022-07-31T02:57:06.643Z,99.90
2022-07-31T02:59:37.893Z,99.90
2022-07-31T03:02:06.500Z,99.90
2022-07-31T03:04:34.743Z,99.90
2022-07-31T03:07:02.976Z,99.90
2022-07-31T03:09:32.308Z,99.90
2022-07-31T03:12:01.846Z,99.90
2022-07-31T03:14:34.965Z,99.90
2022-07-31T03:17:03.977Z,99.90
2022-07-31T03:19:33.164Z,99.90
2022-07-31T03:22:02.069Z,99.90
2022-07-31T03:24:30.642Z,99.90
2022-07-31T03:27:00.235Z,99.90
2022-07-31T03:29:39.161Z,99.90
2022-07-31T03:32:11.606Z,99.90
2022-07-31T03:34:39.563Z,99.90
2022-07-31T03:37:08.306Z,99.90
2022-07-31T03:39:36.232Z,99.90
2022-07-31T03:42:06.355Z,99.90
2022-07-31T03:44:42.414Z,99.90
2022-07-31T03:47:10.424Z,99.90
2022-07-31T03:49:39.038Z,99.90
2022-07-31T03:52:11.752Z,99.90
2022-07-31T03:54:40.495Z,99.90
2022-07-31T03:57:11.677Z,99.90
2022-07-31T03:59:48.280Z,99.90
2022-07-31T04:02:18.838Z,99.90
2022-07-31T04:04:47.082Z,99.90
2022-07-31T04:07:15.064Z,99.90
2022-07-31T04:09:43.093Z,99.90
2022-07-31T04:12:12.454Z,99.90
2022-07-31T04:14:40.440Z,99.90
2022-07-31T04:17:08.408Z,99.90
2022-07-31T04:19:36.355Z,99.90
2022-07-31T04:22:04.993Z,99.90
2022-07-31T04:24:33.354Z,99.90
2022-07-31T04:27:01.468Z,99.90
2022-07-31T04:29:30.783Z,99.90
2022-07-31T04:31:58.790Z,99.90
2022-07-31T04:34:26.726Z,99.90
2022-07-31T04:36:54.787Z,99.90
2022-07-31T04:39:22.941Z,99.90
2022-07-31T04:41:52.010Z,99.90
2022-07-31T04:44:20.736Z,99.90
2022-07-31T04:46:50.074Z,99.90
2022-07-31T04:49:18.418Z,99.90
2022-07-31T04:51:46.440Z,99.50
2022-07-31T04:54:14.441Z,98.50
2022-07-31T04:56:43.151Z,97.40
2022-07-31T04:59:14.275Z,97.10
2022-07-31T05:01:43.700Z,95.70
2022-07-31T05:04:13.431Z,93.60
2022-07-31T05:06:42.691Z,91.30
2022-07-31T05:09:18.478Z,90.60
2022-07-31T05:11:48.231Z,91.70
2022-07-31T05:14:17.691Z,91.30
2022-07-31T05:16:46.381Z,88.90
2022-07-31T05:19:15.851Z,86.30
2022-07-31T05:21:53.314Z,84.80
2022-07-31T05:24:32.657Z,85.80
2022-07-31T05:27:02.161Z,88.40
2022-07-31T05:29:30.331Z,87.00
2022-07-31T05:32:10.167Z,85.10
2022-07-31T05:34:39.623Z,85.70
2022-07-31T05:37:08.042Z,85.80
2022-07-31T05:39:36.036Z,87.10
2022-07-31T05:42:04.138Z,88.90
2022-07-31T05:44:32.310Z,90.50
2022-07-31T05:49:28.953Z,93.20
2022-07-31T05:51:58.506Z,94.20
2022-07-31T05:54:26.603Z,94.70
2022-07-31T05:56:54.673Z,94.60
2022-07-31T05:59:23.936Z,94.20
2022-07-31T06:01:52.143Z,93.50
2022-07-31T06:04:20.117Z,92.70
2022-07-31T06:06:48.478Z,92.40
2022-07-31T06:09:17.819Z,92.60
2022-07-31T06:11:46.138Z,92.70
2022-07-31T06:14:14.075Z,92.90
2022-07-31T06:16:42.141Z,93.10
2022-07-31T06:19:10.884Z,93.40
2022-07-31T06:21:38.869Z,93.70
2022-07-31T06:24:08.127Z,94.20
2022-07-31T06:26:38.870Z,94.70
2022-07-31T06:29:07.502Z,95.10
2022-07-31T06:31:35.843Z,95.50
2022-07-31T06:34:04.137Z,95.70
2022-07-31T06:36:33.049Z,95.60
2022-07-31T06:39:01.178Z,95.80
2022-07-31T06:41:50.669Z,96.10
2022-07-31T06:44:21.139Z,95.70
2022-07-31T06:46:49.757Z,95.40
2022-07-31T06:49:18.666Z,95.10
2022-07-31T06:51:46.867Z,94.70
2022-07-31T06:54:15.003Z,94.10
2022-07-31T06:56:43.068Z,93.40
2022-07-31T06:59:11.610Z,93.00
2022-07-31T07:01:41.113Z,92.50
2022-07-31T07:04:09.257Z,92.00
2022-07-31T07:06:37.210Z,91.40
2022-07-31T07:09:05.840Z,91.00
2022-07-31T07:11:34.033Z,90.10
2022-07-31T07:14:02.317Z,87.50
2022-07-31T07:16:30.306Z,78.60
2022-07-31T07:19:00.060Z,68.40
2022-07-31T07:21:28.226Z,58.60
2022-07-31T07:23:56.298Z,55.30
2022-07-31T07:26:24.550Z,54.60
2022-07-31T07:28:52.554Z,54.80
2022-07-31T07:31:20.665Z,56.20
2022-07-31T07:33:48.936Z,56.70
2022-07-31T07:36:24.221Z,57.40
2022-07-31T07:38:54.860Z,56.50
2022-07-31T07:41:24.011Z,54.70
2022-07-31T07:43:53.024Z,52.20
2022-07-31T07:46:22.003Z,49.30
2022-07-31T07:48:51.029Z,47.10
2022-07-31T07:51:21.496Z,44.40
2022-07-31T07:53:49.850Z,42.10
2022-07-31T07:56:18.853Z,39.10
2022-07-31T07:58:49.008Z,35.90
2022-07-31T08:01:17.579Z,34.20
2022-07-31T08:03:51.249Z,33.50
2022-07-31T08:06:22.619Z,32.00
2022-07-31T08:08:50.897Z,30.00
2022-07-31T08:11:19.707Z,29.90
2022-07-31T08:13:50.901Z,29.10
2022-07-31T08:16:20.495Z,29.30
2022-07-31T08:18:49.077Z,29.30
2022-07-31T08:21:17.423Z,28.50
2022-07-31T08:23:47.332Z,28.40
2022-07-31T08:26:15.255Z,28.20
2022-07-31T08:28:49.938Z,28.50
2022-07-31T08:31:19.373Z,28.70
2022-07-31T08:33:47.440Z,29.30
2022-07-31T08:36:15.553Z,30.50
2022-07-31T08:38:43.614Z,31.20
2022-07-31T08:41:13.905Z,30.40
2022-07-31T08:44:02.638Z,29.80
2022-07-31T08:46:30.308Z,29.70
2022-07-31T08:49:00.793Z,29.00
2022-07-31T08:51:29.652Z,29.70
2022-07-31T08:53:58.523Z,28.90
2022-07-31T08:56:29.374Z,27.90
2022-07-31T08:58:58.289Z,26.90
2022-07-31T09:01:28.098Z,26.30
2022-07-31T09:03:56.376Z,26.10
2022-07-31T09:06:24.305Z,26.40
2022-07-31T09:08:52.341Z,25.90
2022-07-31T09:11:20.304Z,25.70
2022-07-31T09:14:01.417Z,25.40
2022-07-31T09:16:31.418Z,25.70
2022-07-31T09:19:00.394Z,25.20
2022-07-31T09:21:39.120Z,25.60
2022-07-31T09:24:10.115Z,26.00
2022-07-31T09:26:40.854Z,25.60
2022-07-31T09:29:12.580Z,25.20
2022-07-31T09:31:40.529Z,24.90
2022-07-31T09:34:08.382Z,24.70
2022-07-31T09:36:36.333Z,24.80
2022-07-31T09:39:14.416Z,24.70
2022-07-31T09:42:01.374Z,24.70
2022-07-31T09:44:44.583Z,24.90
2022-07-31T09:47:22.875Z,25.00
2022-07-31T09:49:55.649Z,24.90
2022-07-31T09:52:24.192Z,24.70
2022-07-31T09:55:02.109Z,24.40
2022-07-31T09:57:30.449Z,25.10
2022-07-31T09:59:59.727Z,25.90
2022-07-31T10:02:30.425Z,25.80
2022-07-31T10:04:59.417Z,25.80
2022-07-31T10:07:32.205Z,25.10
2022-07-31T10:10:01.888Z,24.90
2022-07-31T10:12:32.668Z,25.30
2022-07-31T10:15:06.651Z,25.30
2022-07-31T10:17:39.636Z,25.00
2022-07-31T10:20:09.544Z,24.40
2022-07-31T10:22:43.922Z,24.10
2022-07-31T10:25:17.719Z,23.90
2022-07-31T10:27:47.101Z,23.60
2022-07-31T10:30:17.198Z,23.50
2022-07-31T10:32:45.648Z,23.50
2022-07-31T10:35:14.154Z,23.30
2022-07-31T10:37:58.502Z,23.30
2022-07-31T10:40:31.976Z,23.80
2022-07-31T10:43:18.387Z,23.80
2022-07-31T10:45:52.591Z,23.60
2022-07-31T10:48:22.424Z,23.70
2022-07-31T10:51:01.700Z,24.00
2022-07-31T10:53:50.458Z,24.30
2022-07-31T10:56:20.121Z,24.70
2022-07-31T10:58:49.820Z,25.80
2022-07-31T11:01:53.403Z,26.60
2022-07-31T11:04:27.474Z,27.60
2022-07-31T11:06:55.368Z,28.70
2022-07-31T11:09:24.517Z,29.60
2022-07-31T11:11:53.007Z,30.70
2022-07-31T11:14:43.980Z,31.20
2022-07-31T11:17:16.175Z,31.50
2022-07-31T11:19:45.684Z,31.80
2022-07-31T11:22:32.584Z,31.50
2022-07-31T11:25:01.958Z,30.50
2022-07-31T11:27:35.150Z,29.80
2022-07-31T11:30:13.194Z,29.00
2022-07-31T11:32:48.951Z,29.40
2022-07-31T11:35:26.346Z,29.60
2022-07-31T11:37:56.837Z,30.00
2022-07-31T11:40:27.975Z,30.00
2022-07-31T11:43:24.778Z,30.50
2022-07-31T11:45:48.774Z,30.70
2022-07-31T11:48:19.878Z,30.70
2022-07-31T11:50:49.235Z,30.00
2022-07-31T11:53:19.001Z,30.10
2022-07-31T11:55:50.594Z,30.50
2022-07-31T11:58:20.147Z,30.60
2022-07-31T12:00:49.843Z,30.60
2022-07-31T12:03:29.686Z,30.90
2022-07-31T12:05:58.199Z,30.40
2022-07-31T12:08:27.504Z,30.70
2022-07-31T12:11:07.614Z,30.80
2022-07-31T12:13:35.750Z,30.10
2022-07-31T12:16:06.085Z,30.40
2022-07-31T12:18:48.031Z,31.30
2022-07-31T12:21:17.223Z,31.60
2022-07-31T12:23:48.534Z,32.30
2022-07-31T12:26:26.460Z,32.50
2022-07-31T12:29:01.660Z,33.10
2022-07-31T12:31:32.966Z,33.80
2022-07-31T12:34:07.482Z,34.00
2022-07-31T12:36:37.416Z,34.10
2022-07-31T12:39:12.658Z,33.80
2022-07-31T12:41:44.246Z,33.80
2022-07-31T12:44:14.475Z,33.70
2022-07-31T12:46:43.761Z,33.70
2022-07-31T12:49:13.777Z,33.50
2022-07-31T12:51:47.899Z,33.40
2022-07-31T12:54:17.893Z,34.10
2022-07-31T12:56:50.689Z,34.50
2022-07-31T12:59:19.439Z,34.40
2022-07-31T13:01:47.497Z,34.70
2022-07-31T13:04:19.206Z,34.70
2022-07-31T13:07:06.335Z,34.70
2022-07-31T13:09:35.293Z,35.00
2022-07-31T13:12:23.441Z,35.40
2022-07-31T13:14:51.401Z,35.10
2022-07-31T13:17:19.526Z,35.40
2022-07-31T13:19:51.010Z,35.20
2022-07-31T13:22:19.366Z,35.40
2022-07-31T13:24:47.285Z,36.10
2022-07-31T13:27:22.531Z,35.60
2022-07-31T13:29:50.931Z,35.70
2022-07-31T13:32:18.937Z,35.10
2022-07-31T13:34:48.902Z,35.10
2022-07-31T13:37:38.551Z,35.30
2022-07-31T13:40:08.338Z,34.80
2022-07-31T13:42:38.488Z,34.40
2022-07-31T13:45:08.667Z,34.60
2022-07-31T13:47:51.711Z,34.10
2022-07-31T13:50:22.079Z,33.90
2022-07-31T13:52:50.262Z,34.30
2022-07-31T13:55:18.623Z,34.40
2022-07-31T13:57:46.626Z,34.70
2022-07-31T14:00:16.079Z,35.00
2022-07-31T14:02:46.676Z,35.00
2022-07-31T14:05:14.895Z,35.50
2022-07-31T14:07:45.386Z,35.30
2022-07-31T14:10:20.896Z,35.20
2022-07-31T14:12:49.398Z,34.90
2022-07-31T14:15:18.121Z,35.50
2022-07-31T14:17:46.219Z,35.50
2022-07-31T14:20:14.559Z,35.60
2022-07-31T14:22:44.093Z,35.80
2022-07-31T14:25:12.769Z,36.10
2022-07-31T14:27:41.407Z,36.20
2022-07-31T14:30:10.754Z,36.20
2022-07-31T14:32:38.771Z,36.30
2022-07-31T14:35:08.688Z,37.00
2022-07-31T14:37:37.096Z,37.00
2022-07-31T14:40:07.591Z,37.40
2022-07-31T14:42:36.700Z,37.80
2022-07-31T14:45:08.369Z,37.80
2022-07-31T14:47:39.705Z,38.40
2022-07-31T14:50:12.870Z,38.30
2022-07-31T14:52:43.079Z,38.50
2022-07-31T14:55:12.500Z,38.90
2022-07-31T14:57:40.390Z,39.10
2022-07-31T15:00:13.083Z,39.30
2022-07-31T15:02:41.512Z,39.70
2022-07-31T15:06:55.464Z,39.70
2022-07-31T15:07:58.478Z,40.10
2022-07-31T15:10:28.169Z,40.30
2022-07-31T15:12:57.895Z,40.60
2022-07-31T15:15:25.897Z,40.70
2022-07-31T15:17:58.994Z,40.70
2022-07-31T15:20:32.685Z,40.00
2022-07-31T15:23:01.659Z,40.00
2022-07-31T15:25:31.291Z,39.70
2022-07-31T15:27:59.300Z,39.80
2022-07-31T15:30:27.594Z,40.20
2022-07-31T15:32:55.689Z,39.80
2022-07-31T15:35:23.757Z,39.90
2022-07-31T15:37:52.286Z,40.20
2022-07-31T15:40:20.713Z,39.60
2022-07-31T15:42:50.253Z,39.50
2022-07-31T15:45:20.698Z,39.20
2022-07-31T15:47:49.498Z,39.00
2022-07-31T15:50:20.619Z,39.70
2022-07-31T15:52:49.820Z,39.00
2022-07-31T15:55:18.920Z,38.80
2022-07-31T15:57:47.160Z,38.30
2022-07-31T16:00:19.234Z,38.30
2022-07-31T16:02:47.678Z,38.40
2022-07-31T16:05:21.613Z,39.00
2022-07-31T16:08:29.095Z,39.30
2022-07-31T16:10:54.903Z,39.70
2022-07-31T16:13:24.057Z,40.70
2022-07-31T16:15:55.310Z,40.40
2022-07-31T16:18:24.468Z,40.40
2022-07-31T16:20:53.575Z,40.60
2022-07-31T16:23:21.967Z,40.80
2022-07-31T16:25:53.512Z,40.40
2022-07-31T16:28:22.761Z,40.60
2022-07-31T16:30:53.141Z,40.70
2022-07-31T16:33:21.201Z,40.40
2022-07-31T16:35:50.284Z,40.40
2022-07-31T16:38:18.300Z,40.40
2022-07-31T16:40:48.767Z,40.60
2022-07-31T16:43:50.183Z,40.70
2022-07-31T16:46:09.387Z,40.90
2022-07-31T16:48:37.402Z,41.20
2022-07-31T16:51:06.590Z,41.50
2022-07-31T16:54:13.417Z,41.40
2022-07-31T16:56:26.164Z,41.40
2022-07-31T16:58:55.881Z,41.50
2022-07-31T17:01:57.667Z,41.40
2022-07-31T17:04:13.842Z,41.30
2022-07-31T17:06:41.997Z,41.10
2022-07-31T17:09:17.172Z,41.30
2022-07-31T17:11:46.834Z,41.30
2022-07-31T17:14:14.978Z,41.70
2022-07-31T17:16:47.564Z,41.80
2022-07-31T17:19:16.780Z,41.80
2022-07-31T17:22:05.072Z,41.90
2022-07-31T17:24:34.748Z,41.70
2022-07-31T17:27:04.881Z,41.70
2022-07-31T17:29:33.184Z,42.30
2022-07-31T17:32:02.864Z,42.30
2022-07-31T17:34:31.335Z,42.40
2022-07-31T17:36:59.397Z,42.80
2022-07-31T17:39:30.911Z,42.90
2022-07-31T17:41:59.860Z,43.10
2022-07-31T17:44:28.183Z,43.30
2022-07-31T17:46:58.000Z,43.30
2022-07-31T17:49:28.829Z,43.60
2022-07-31T17:51:57.847Z,43.40
2022-07-31T17:54:27.895Z,43.60
2022-07-31T17:56:56.001Z,43.80
2022-07-31T17:59:25.398Z,43.60
2022-07-31T18:01:59.825Z,44.10
2022-07-31T18:04:30.514Z,44.20
2022-07-31T18:06:59.310Z,44.40
2022-07-31T18:09:29.144Z,44.60
2022-07-31T18:11:58.937Z,44.60
2022-07-31T18:14:27.427Z,44.70
2022-07-31T18:16:55.834Z,44.90
2022-07-31T18:19:24.369Z,45.00
2022-07-31T18:21:54.695Z,44.90
2022-07-31T18:24:23.564Z,45.40
2022-07-31T18:26:53.849Z,45.70
2022-07-31T18:29:22.307Z,45.80
2022-07-31T18:31:50.551Z,46.30
2022-07-31T18:34:18.608Z,46.60
2022-07-31T18:36:52.916Z,47.40
2022-07-31T18:39:26.992Z,47.00
2022-07-31T18:41:55.872Z,47.10
2022-07-31T18:44:23.936Z,47.30
2022-07-31T18:46:53.042Z,47.60
2022-07-31T18:51:02.052Z,48.40
2022-07-31T18:52:10.525Z,47.80
2022-07-31T18:54:40.295Z,47.90
2022-07-31T18:57:08.810Z,47.90
2022-07-31T18:59:37.546Z,48.20
2022-07-31T19:02:06.357Z,48.30
2022-07-31T19:04:39.639Z,48.30
2022-07-31T19:07:07.621Z,48.40
2022-07-31T19:09:35.568Z,48.60
2022-07-31T19:12:08.203Z,48.70
2022-07-31T19:14:36.930Z,48.60
2022-07-31T19:17:05.107Z,48.80
2022-07-31T19:19:54.307Z,49.00
2022-07-31T19:22:23.569Z,48.90
2022-07-31T19:24:51.999Z,49.20
2022-07-31T19:27:21.473Z,49.50
2022-07-31T19:29:49.747Z,49.60
2022-07-31T19:32:18.103Z,49.90
2022-07-31T19:34:48.127Z,49.90
2022-07-31T19:37:20.612Z,50.30
2022-07-31T19:39:49.293Z,50.60
2022-07-31T19:42:17.322Z,50.80
2022-07-31T19:44:46.776Z,51.10
2022-07-31T19:47:14.865Z,51.40
2022-07-31T19:49:44.905Z,51.60
2022-07-31T19:52:13.027Z,51.80
2022-07-31T19:54:41.083Z,51.90
2022-07-31T19:57:10.853Z,52.10
2022-07-31T19:59:38.851Z,52.30
2022-07-31T20:02:08.534Z,52.40
2022-07-31T20:04:37.306Z,53.20
2022-07-31T20:07:05.283Z,52.80
2022-07-31T20:09:33.885Z,53.00
2022-07-31T20:12:02.036Z,53.20
2022-07-31T20:14:30.186Z,53.40
2022-07-31T20:16:58.207Z,53.60
2022-07-31T20:19:27.650Z,53.90
2022-07-31T20:21:55.644Z,54.00
2022-07-31T20:24:25.417Z,54.10
2022-07-31T20:26:53.441Z,54.20
2022-07-31T20:29:21.482Z,54.40
2022-07-31T20:31:49.938Z,54.50
2022-07-31T20:34:17.978Z,54.70
2022-07-31T20:36:47.428Z,54.90
2022-07-31T20:39:15.416Z,54.90
2022-07-31T20:41:43.400Z,55.20
2022-07-31T20:44:11.472Z,55.40
2022-07-31T20:46:39.654Z,55.70
2022-07-31T20:49:07.691Z,56.00
2022-07-31T20:51:52.590Z,56.00
2022-07-31T20:54:21.770Z,56.50
2022-07-31T20:57:02.816Z,56.70
2022-07-31T20:59:31.383Z,56.70
2022-07-31T21:01:59.385Z,56.90
2022-07-31T21:04:27.376Z,56.90
2022-07-31T21:06:56.795Z,56.90
2022-07-31T21:09:24.839Z,56.90
2022-07-31T21:11:52.913Z,57.00
2022-07-31T21:14:21.524Z,57.20
2022-07-31T21:16:49.634Z,57.20
2022-07-31T21:19:17.666Z,57.30
2022-07-31T21:21:45.781Z,57.50
2022-07-31T21:24:15.926Z,57.70
2022-07-31T21:26:46.690Z,57.80
2022-07-31T21:29:19.438Z,57.90
2022-07-31T21:31:49.970Z,58.00
2022-07-31T21:34:18.885Z,58.30
2022-07-31T21:36:48.613Z,58.30
2022-07-31T21:39:19.612Z,58.20
2022-07-31T21:41:48.018Z,58.20
2022-07-31T21:44:16.348Z,57.80
2022-07-31T21:46:51.582Z,57.70
2022-07-31T21:49:21.827Z,57.90
2022-07-31T21:51:50.276Z,58.00
2022-07-31T21:54:19.493Z,58.20
2022-07-31T21:56:47.351Z,58.50
2022-07-31T21:59:15.889Z,58.90
2022-07-31T22:01:57.885Z,58.60
2022-07-31T22:04:34.367Z,58.70
2022-07-31T22:07:20.214Z,59.10
2022-07-31T22:09:49.418Z,59.10
2022-07-31T22:12:17.348Z,59.10
2022-07-31T22:14:45.235Z,59.30
2022-07-31T22:17:13.229Z,59.50
2022-07-31T22:19:42.181Z,59.70
2022-07-31T22:22:15.692Z,59.80
2022-07-31T22:24:43.978Z,60.10
2022-07-31T22:27:31.807Z,60.50
2022-07-31T22:29:59.822Z,60.60
2022-07-31T22:32:28.046Z,61.10
2022-07-31T22:34:56.533Z,61.50
2022-07-31T22:37:26.792Z,62.00
2022-07-31T22:39:55.089Z,62.40
2022-07-31T22:42:24.465Z,62.80
2022-07-31T22:44:52.777Z,63.10
2022-07-31T22:47:21.005Z,63.50
2022-07-31T22:49:49.058Z,63.70
2022-07-31T22:52:17.288Z,63.80
2022-07-31T22:54:45.987Z,64.40
2022-07-31T22:57:14.430Z,64.40
2022-07-31T22:59:44.689Z,64.60
2022-07-31T23:02:14.073Z,64.70
2022-07-31T23:04:42.571Z,65.50
2022-07-31T23:07:10.595Z,65.50
2022-07-31T23:09:38.529Z,65.70
2022-07-31T23:12:07.139Z,65.80
2022-07-31T23:14:35.326Z,66.10
2022-07-31T23:17:04.586Z,66.30
2022-07-31T23:19:32.461Z,66.80
2022-07-31T23:22:00.302Z,67.00
2022-07-31T23:24:28.209Z,67.30
2022-07-31T23:26:56.060Z,67.60
2022-07-31T23:29:23.968Z,68.10
2022-07-31T23:31:52.083Z,68.60
2022-07-31T23:34:21.280Z,68.90
2022-07-31T23:36:49.236Z,69.20
2022-07-31T23:39:18.511Z,69.80
2022-07-31T23:42:00.248Z,70.30
2022-07-31T23:44:28.095Z,70.50
2022-07-31T23:46:56.222Z,70.90
2022-07-31T23:49:26.033Z,71.10
2022-07-31T23:51:53.938Z,71.40
2022-07-31T23:54:21.824Z,72.00
2022-07-31T23:56:49.680Z,72.50
2022-07-31T23:59:17.511Z,72.50
